createdAt,value
2018-09-15T00:01:06.731Z,18.00
2018-09-15T00:03:47.345Z,18.00
2018-09-15T00:06:27.881Z,17.90
2018-09-15T00:08:56.153Z,17.70
2018-09-15T00:11:24.477Z,17.60
2018-09-15T00:14:05.491Z,17.60
2018-09-15T00:16:46.325Z,17.50
2018-09-15T00:19:26.861Z,17.50
2018-09-15T00:22:07.572Z,17.50
2018-09-15T00:24:48.189Z,17.40
2018-09-15T00:27:31.823Z,17.30
2018-09-15T00:30:12.359Z,17.20
2018-09-15T00:32:40.675Z,17.10
2018-09-15T00:35:21.067Z,17.00
2018-09-15T00:37:49.325Z,17.00
2018-09-15T00:40:30.237Z,17.00
2018-09-15T00:43:10.909Z,16.90
2018-09-15T00:45:51.702Z,16.80
2018-09-15T00:48:32.321Z,16.80
2018-09-15T00:51:00.754Z,16.80
2018-09-15T00:53:40.982Z,16.80
2018-09-15T00:56:09.223Z,16.80
2018-09-15T00:58:37.522Z,16.70
2018-09-15T01:01:18.044Z,16.70
2018-09-15T01:03:58.757Z,16.70
2018-09-15T01:06:28.050Z,16.60
2018-09-15T01:09:08.393Z,16.60
2018-09-15T01:11:36.696Z,16.60
2018-09-15T01:14:04.941Z,16.60
2018-09-15T01:16:41.099Z,16.50
2018-09-15T01:19:09.987Z,16.50
2018-09-15T01:21:45.898Z,16.50
2018-09-15T01:24:26.781Z,16.50
2018-09-15T01:27:07.404Z,16.50
2018-09-15T01:29:42.484Z,16.50
2018-09-15T01:32:22.734Z,16.50
2018-09-15T01:34:50.936Z,16.50
2018-09-15T01:37:19.221Z,16.50
2018-09-15T01:40:00.064Z,16.50
2018-09-15T01:42:28.276Z,16.50
2018-09-15T01:44:58.965Z,16.50
2018-09-15T01:47:31.113Z,16.40
2018-09-15T01:50:11.874Z,16.40
2018-09-15T01:52:41.612Z,16.40
2018-09-15T01:55:09.830Z,16.40
2018-09-15T01:57:38.080Z,16.40
2018-09-15T02:00:06.240Z,16.50
2018-09-15T02:02:34.601Z,16.50
2018-09-15T02:05:06.322Z,16.30
2018-09-15T02:07:34.521Z,16.30
2018-09-15T02:10:15.015Z,16.40
2018-09-15T02:12:43.234Z,16.40
2018-09-15T02:15:11.511Z,16.30
2018-09-15T02:17:52.232Z,16.40
2018-09-15T02:20:32.878Z,16.30
2018-09-15T02:23:13.659Z,16.30
2018-09-15T02:25:54.102Z,16.30
2018-09-15T02:28:23.004Z,16.30
2018-09-15T02:30:51.846Z,16.20
2018-09-15T02:33:32.037Z,16.20
2018-09-15T02:36:12.647Z,16.10
2018-09-15T02:38:53.241Z,16.10
2018-09-15T02:41:26.103Z,16.00
2018-09-15T02:43:54.357Z,15.80
2018-09-15T02:46:35.416Z,15.80
2018-09-15T02:49:15.996Z,15.60
2018-09-15T02:51:50.566Z,15.60
2018-09-15T02:54:31.312Z,15.60
2018-09-15T02:56:59.865Z,15.60
2018-09-15T02:59:28.057Z,15.50
2018-09-15T03:02:08.493Z,15.60
2018-09-15T03:04:37.736Z,15.50
2018-09-15T03:07:17.921Z,15.50
2018-09-15T03:09:47.228Z,15.50
2018-09-15T03:12:28.401Z,15.40
2018-09-15T03:15:09.087Z,15.40
2018-09-15T03:17:37.277Z,15.40
2018-09-15T03:20:18.261Z,15.40
2018-09-15T03:22:46.509Z,15.30
2018-09-15T03:25:14.705Z,15.30
2018-09-15T03:27:55.271Z,15.30
2018-09-15T03:30:28.980Z,15.30
2018-09-15T03:32:59.282Z,15.30
2018-09-15T03:35:33.850Z,15.30
2018-09-15T03:38:02.155Z,15.30
2018-09-15T03:40:31.402Z,15.30
2018-09-15T03:42:59.586Z,15.30
2018-09-15T03:45:28.574Z,15.30
2018-09-15T03:48:09.192Z,15.30
2018-09-15T03:50:37.369Z,15.30
2018-09-15T03:53:17.602Z,15.20
2018-09-15T03:55:58.371Z,15.20
2018-09-15T03:58:38.933Z,15.10
2018-09-15T04:01:19.527Z,15.00
2018-09-15T04:03:59.993Z,15.00
2018-09-15T04:06:40.770Z,15.00
2018-09-15T04:09:10.309Z,15.00
2018-09-15T04:11:51.031Z,14.90
2018-09-15T04:14:20.277Z,15.00
2018-09-15T04:16:48.545Z,15.00
2018-09-15T04:19:28.884Z,15.00
2018-09-15T04:22:09.376Z,15.00
2018-09-15T04:24:50.062Z,15.10
2018-09-15T04:27:30.609Z,15.10
2018-09-15T04:30:11.275Z,15.10
2018-09-15T04:32:51.785Z,15.20
2018-09-15T04:35:32.376Z,15.20
2018-09-15T04:38:12.949Z,15.30
2018-09-15T04:47:38.537Z,15.20
2018-09-15T04:50:19.205Z,15.10
2018-09-15T04:52:49.664Z,14.90
2018-09-15T04:55:18.332Z,15.00
2018-09-15T04:57:50.389Z,15.10
2018-09-15T05:00:18.657Z,15.20
2018-09-15T05:02:50.661Z,15.20
2018-09-15T05:05:18.906Z,15.30
2018-09-15T05:07:59.556Z,15.30
2018-09-15T05:10:28.972Z,15.40
2018-09-15T05:13:00.907Z,15.40
2018-09-15T05:15:29.046Z,15.30
2018-09-15T05:18:04.145Z,15.40
2018-09-15T05:20:44.322Z,15.30
2018-09-15T05:23:16.078Z,15.40
2018-09-15T05:25:44.363Z,15.40
2018-09-15T05:28:12.611Z,15.40
2018-09-15T05:30:40.831Z,15.40
2018-09-15T05:33:09.589Z,15.40
2018-09-15T05:35:37.879Z,15.30
2018-09-15T05:38:06.140Z,15.30
2018-09-15T05:40:35.004Z,15.30
2018-09-15T05:43:03.753Z,15.40
2018-09-15T05:45:44.910Z,15.30
2018-09-15T05:48:25.353Z,15.30
2018-09-15T05:50:53.663Z,15.40
2018-09-15T05:53:34.061Z,15.40
2018-09-15T05:56:02.345Z,15.50
2018-09-15T05:58:30.721Z,15.50
2018-09-15T06:00:59.186Z,15.50
2018-09-15T06:03:29.508Z,15.50
2018-09-15T06:06:09.731Z,15.40
2018-09-15T06:08:37.931Z,15.40
2018-09-15T06:11:15.313Z,15.50
2018-09-15T06:13:44.536Z,15.50
2018-09-15T06:16:12.817Z,15.50
2018-09-15T06:18:41.341Z,15.50
2018-09-15T06:21:09.663Z,15.60
2018-09-15T06:23:50.689Z,15.60
2018-09-15T06:26:19.215Z,15.60
2018-09-15T06:29:00.112Z,15.50
2018-09-15T06:31:40.921Z,15.50
2018-09-15T06:34:21.671Z,15.60
2018-09-15T06:36:50.093Z,15.50
2018-09-15T06:39:30.709Z,15.50
2018-09-15T06:42:11.205Z,15.50
2018-09-15T06:44:51.874Z,15.50
2018-09-15T06:47:20.270Z,15.40
2018-09-15T06:50:01.344Z,15.40
2018-09-15T06:52:41.950Z,15.30
2018-09-15T06:55:22.837Z,15.40
2018-09-15T06:58:03.429Z,15.40
2018-09-15T07:00:31.676Z,15.40
2018-09-15T07:03:13.757Z,15.60
2018-09-15T07:05:54.258Z,15.60
2018-09-15T07:08:27.540Z,15.60
2018-09-15T07:11:08.555Z,15.60
2018-09-15T07:13:36.826Z,15.70
2018-09-15T07:16:07.333Z,15.70
2018-09-15T07:18:48.437Z,15.80
2018-09-15T07:21:29.132Z,15.70
2018-09-15T07:23:57.369Z,15.70
2018-09-15T07:26:26.713Z,15.70
2018-09-15T07:28:55.978Z,15.80
2018-09-15T07:31:24.366Z,15.90
2018-09-15T07:33:52.617Z,15.90
2018-09-15T07:36:24.627Z,16.00
2018-09-15T07:38:53.405Z,16.10
2018-09-15T07:41:21.702Z,16.20
2018-09-15T07:43:54.214Z,16.20
2018-09-15T07:46:22.658Z,16.20
2018-09-15T07:48:50.973Z,16.20
2018-09-15T07:51:19.211Z,16.20
2018-09-15T07:53:47.466Z,16.20
2018-09-15T07:56:27.768Z,16.10
2018-09-15T07:58:56.046Z,16.20
2018-09-15T08:01:24.313Z,16.20
2018-09-15T08:04:04.650Z,16.20
2018-09-15T08:06:33.255Z,16.30
2018-09-15T08:09:06.710Z,16.30
2018-09-15T08:11:36.692Z,16.40
2018-09-15T08:14:05.014Z,16.50
2018-09-15T08:16:34.218Z,16.50
2018-09-15T08:19:02.470Z,16.60
2018-09-15T08:21:31.093Z,16.70
2018-09-15T08:24:00.505Z,16.70
2018-09-15T08:26:28.958Z,16.80
2018-09-15T08:28:57.152Z,16.90
2018-09-15T08:31:25.423Z,17.00
2018-09-15T08:33:53.636Z,17.00
2018-09-15T08:36:23.252Z,17.00
2018-09-15T08:38:51.608Z,17.00
2018-09-15T08:41:32.197Z,17.10
2018-09-15T08:44:12.846Z,17.20
2018-09-15T08:46:53.604Z,17.30
2018-09-15T08:49:21.868Z,17.40
2018-09-15T08:51:50.456Z,17.50
2018-09-15T08:54:30.985Z,17.50
2018-09-15T08:56:59.520Z,17.40
2018-09-15T08:59:27.761Z,17.40
2018-09-15T09:01:56.782Z,17.40
2018-09-15T09:04:35.931Z,17.50
2018-09-15T09:07:04.173Z,17.60
2018-09-15T09:09:32.941Z,17.80
2018-09-15T09:12:01.219Z,18.00
2018-09-15T09:14:29.670Z,18.10
2018-09-15T09:16:57.906Z,18.30
2018-09-15T09:19:26.187Z,18.50
2018-09-15T09:21:54.822Z,18.70
2018-09-15T09:24:23.057Z,18.80
2018-09-15T09:26:51.319Z,18.70
2018-09-15T09:29:31.895Z,18.50
2018-09-15T09:32:00.133Z,18.50
2018-09-15T09:34:40.518Z,18.50
2018-09-15T09:37:08.764Z,18.80
2018-09-15T09:39:37.006Z,18.90
2018-09-15T09:42:05.645Z,18.90
2018-09-15T09:44:34.685Z,19.00
2018-09-15T09:47:02.902Z,18.90
2018-09-15T09:49:32.750Z,19.00
2018-09-15T09:52:03.020Z,18.90
2018-09-15T09:54:32.069Z,19.00
2018-09-15T09:57:00.974Z,19.10
2018-09-15T09:59:29.636Z,19.10
2018-09-15T10:02:13.584Z,19.00
2018-09-15T10:04:45.588Z,18.90
2018-09-15T10:07:13.911Z,19.00
2018-09-15T10:09:54.496Z,19.00
2018-09-15T10:12:35.821Z,19.10
2018-09-15T10:15:16.600Z,19.30
2018-09-15T10:17:57.257Z,19.50
2018-09-15T10:20:25.716Z,19.40
2018-09-15T10:23:00.771Z,19.60
2018-09-15T10:25:41.482Z,20.00
2018-09-15T10:28:22.255Z,19.90
2018-09-15T10:30:50.607Z,20.40
2018-09-15T10:33:18.905Z,20.50
2018-09-15T10:35:47.157Z,20.80
2018-09-15T10:38:28.020Z,21.10
2018-09-15T10:41:08.485Z,21.00
2018-09-15T10:43:36.851Z,21.10
2018-09-15T10:46:17.521Z,21.50
2018-09-15T10:48:58.246Z,21.60
2018-09-15T10:51:38.731Z,21.60
2018-09-15T10:54:19.403Z,22.20
2018-09-15T10:57:00.024Z,22.90
2018-09-15T10:59:40.962Z,23.40
2018-09-15T11:02:15.597Z,23.20
2018-09-15T11:04:45.947Z,23.50
2018-09-15T11:07:18.110Z,24.40
2018-09-15T11:09:58.884Z,23.80
2018-09-15T11:12:39.463Z,22.90
2018-09-15T11:15:20.042Z,22.50
2018-09-15T11:18:00.620Z,23.40
2018-09-15T11:20:41.819Z,24.70
2018-09-15T11:23:23.597Z,25.80
2018-09-15T11:26:06.778Z,26.80
2018-09-15T11:28:35.183Z,27.70
2018-09-15T11:31:16.081Z,26.90
2018-09-15T11:33:56.718Z,25.60
2018-09-15T11:36:24.939Z,24.50
2018-09-15T11:38:53.226Z,23.60
2018-09-15T11:41:22.017Z,23.10
2018-09-15T11:44:02.789Z,22.40
2018-09-15T11:46:43.553Z,22.20
2018-09-15T11:49:24.341Z,22.10
2018-09-15T11:51:52.588Z,21.90
2018-09-15T11:54:22.044Z,21.70
2018-09-15T11:57:02.481Z,21.60
2018-09-15T11:59:30.732Z,21.60
2018-09-15T12:02:11.105Z,21.50
2018-09-15T12:04:51.597Z,21.50
2018-09-15T12:07:32.173Z,21.50
2018-09-15T12:10:12.662Z,21.40
2018-09-15T12:12:40.942Z,21.40
2018-09-15T12:15:09.183Z,21.40
2018-09-15T12:17:37.507Z,21.40
2018-09-15T12:20:05.728Z,21.40
2018-09-15T12:22:46.413Z,21.30
2018-09-15T12:25:26.940Z,21.40
2018-09-15T12:28:07.586Z,21.40
2018-09-15T12:30:35.894Z,21.70
2018-09-15T12:33:04.195Z,21.90
2018-09-15T12:35:32.513Z,22.20
2018-09-15T12:38:00.790Z,22.60
2018-09-15T12:40:34.531Z,22.50
2018-09-15T12:43:14.770Z,22.60
2018-09-15T12:45:55.449Z,22.30
2018-09-15T12:48:36.158Z,22.00
2018-09-15T12:51:07.781Z,21.90
2018-09-15T12:53:48.614Z,22.00
2018-09-15T12:56:16.891Z,22.00
2018-09-15T12:58:58.368Z,21.80
2018-09-15T13:01:38.661Z,21.70
2018-09-15T13:04:19.086Z,21.60
2018-09-15T13:06:47.334Z,21.50
2018-09-15T13:09:28.476Z,21.50
2018-09-15T13:12:09.176Z,21.50
2018-09-15T13:14:37.387Z,21.50
2018-09-15T13:17:17.508Z,21.50
2018-09-15T13:19:58.108Z,21.50
2018-09-15T13:22:38.747Z,21.50
2018-09-15T13:25:19.246Z,21.40
2018-09-15T13:27:59.988Z,21.30
2018-09-15T13:30:41.151Z,21.30
2018-09-15T13:33:23.575Z,21.30
2018-09-15T13:35:51.786Z,21.20
2018-09-15T13:38:32.466Z,21.30
2018-09-15T13:41:00.720Z,21.30
2018-09-15T13:43:28.961Z,21.30
2018-09-15T13:46:09.797Z,21.30
2018-09-15T13:48:50.555Z,21.40
2018-09-15T13:51:31.039Z,21.50
2018-09-15T13:54:11.672Z,21.60
2018-09-15T13:56:52.127Z,21.70
2018-09-15T13:59:20.510Z,21.90
2018-09-15T14:01:48.732Z,22.20
2018-09-15T14:04:16.984Z,22.10
2018-09-15T14:06:45.625Z,22.10
2018-09-15T14:09:14.153Z,21.90
2018-09-15T14:11:42.365Z,21.70
2018-09-15T14:14:23.334Z,21.70
2018-09-15T14:16:55.525Z,21.70
2018-09-15T14:19:25.742Z,21.60
2018-09-15T14:21:55.120Z,21.50
2018-09-15T14:24:23.349Z,21.40
2018-09-15T14:26:52.401Z,21.20
2018-09-15T14:29:22.116Z,21.10
2018-09-15T14:32:02.415Z,21.00
2018-09-15T14:34:43.128Z,20.90
2018-09-15T14:37:13.934Z,20.80
2018-09-15T14:39:54.412Z,20.80
2018-09-15T14:42:22.796Z,20.70
2018-09-15T14:45:03.881Z,20.70
2018-09-15T14:47:44.347Z,20.70
2018-09-15T14:50:24.996Z,20.70
2018-09-15T14:53:05.494Z,20.70
2018-09-15T14:55:46.110Z,20.80
2018-09-15T14:58:26.682Z,20.90
2018-09-15T15:01:07.443Z,20.90
2018-09-15T15:03:35.822Z,21.00
2018-09-15T15:06:04.076Z,21.10
2018-09-15T15:08:32.357Z,21.20
2018-09-15T15:11:01.165Z,21.20
2018-09-15T15:13:42.293Z,21.20
2018-09-15T15:16:10.573Z,21.10
2018-09-15T15:18:51.621Z,21.10
2018-09-15T15:21:32.405Z,21.00
2018-09-15T15:24:00.703Z,21.10
2018-09-15T15:26:29.460Z,21.00
2018-09-15T15:29:11.793Z,21.00
2018-09-15T15:31:54.185Z,21.00
2018-09-15T15:34:22.537Z,21.00
2018-09-15T15:37:03.221Z,21.00
2018-09-15T15:39:31.498Z,21.00
2018-09-15T15:42:11.776Z,21.00
2018-09-15T15:44:40.638Z,21.00
2018-09-15T15:47:21.396Z,21.00
2018-09-15T15:50:02.078Z,20.90
2018-09-15T15:52:43.034Z,20.90
2018-09-15T15:55:11.403Z,20.80
2018-09-15T15:57:52.478Z,20.70
2018-09-15T16:00:32.656Z,20.80
2018-09-15T16:03:13.299Z,20.80
2018-09-15T16:05:53.861Z,20.60
2018-09-15T16:08:34.166Z,20.60
2018-09-15T16:11:02.705Z,20.50
2018-09-15T16:13:43.483Z,20.40
2018-09-15T16:16:11.693Z,20.30
2018-09-15T16:18:40.282Z,20.30
2018-09-15T16:21:12.552Z,20.30
2018-09-15T16:23:40.802Z,20.40
2018-09-15T16:26:21.596Z,20.40
2018-09-15T16:28:49.999Z,20.30
2018-09-15T16:31:31.018Z,20.30
2018-09-15T16:34:11.758Z,20.40
2018-09-15T16:36:45.974Z,20.30
2018-09-15T16:39:26.967Z,20.30
2018-09-15T16:41:55.334Z,20.30
2018-09-15T16:44:23.604Z,20.30
2018-09-15T16:47:04.915Z,20.20
2018-09-15T16:49:33.169Z,20.10
2018-09-15T16:52:03.414Z,20.10
2018-09-15T16:54:43.553Z,20.10
2018-09-15T16:57:24.233Z,20.00
2018-09-15T17:00:04.896Z,20.00
2018-09-15T17:02:33.095Z,19.90
2018-09-15T17:05:01.337Z,19.90
2018-09-15T17:07:29.547Z,19.80
2018-09-15T17:10:09.756Z,19.70
2018-09-15T17:12:50.535Z,19.70
2018-09-15T17:15:19.418Z,19.60
2018-09-15T17:17:47.614Z,19.60
2018-09-15T17:20:15.831Z,19.50
2018-09-15T17:22:56.457Z,19.50
2018-09-15T17:25:24.732Z,19.40
2018-09-15T17:27:52.931Z,19.40
2018-09-15T17:30:21.587Z,19.40
2018-09-15T17:32:50.161Z,19.30
2018-09-15T17:35:18.674Z,19.40
2018-09-15T17:37:59.461Z,19.30
2018-09-15T17:40:40.363Z,19.20
2018-09-15T17:43:08.626Z,19.20
2018-09-15T17:45:49.463Z,19.20
2018-09-15T17:48:30.038Z,19.10
2018-09-15T17:51:10.729Z,19.00
2018-09-15T17:53:38.955Z,19.00
2018-09-15T17:56:19.229Z,19.10
2018-09-15T17:58:59.835Z,19.10
2018-09-15T18:01:40.315Z,19.10
2018-09-15T18:04:20.924Z,19.00
2018-09-15T18:06:49.174Z,19.00
2018-09-15T18:09:30.479Z,18.90
2018-09-15T18:11:58.735Z,19.00
2018-09-15T18:14:27.280Z,18.90
2018-09-15T18:17:07.565Z,18.90
2018-09-15T18:19:48.116Z,18.90
2018-09-15T18:22:16.405Z,18.90
2018-09-15T18:24:49.289Z,18.90
2018-09-15T18:27:18.938Z,18.90
2018-09-15T18:29:47.365Z,18.90
2018-09-15T18:32:15.760Z,18.90
2018-09-15T18:34:56.206Z,18.90
2018-09-15T18:37:24.438Z,18.90
2018-09-15T18:40:05.544Z,18.90
2018-09-15T18:42:46.128Z,18.70
2018-09-15T18:45:15.579Z,18.60
2018-09-15T18:47:44.230Z,18.50
2018-09-15T18:50:13.067Z,18.50
2018-09-15T18:52:41.408Z,18.50
2018-09-15T18:55:09.610Z,18.40
2018-09-15T18:57:37.892Z,18.30
2018-09-15T19:00:18.255Z,18.40
2018-09-15T19:02:58.731Z,18.50
2018-09-15T19:05:39.370Z,18.50
2018-09-15T19:08:08.489Z,18.40
2018-09-15T19:10:36.741Z,18.30
2018-09-15T19:13:11.674Z,18.30
2018-09-15T19:15:52.215Z,18.40
2018-09-15T19:18:20.470Z,18.50
2018-09-15T19:20:48.722Z,18.40
2018-09-15T19:23:24.022Z,18.40
2018-09-15T19:25:52.253Z,18.50
2018-09-15T19:28:20.553Z,18.50
2018-09-15T19:31:00.721Z,18.60
2018-09-15T19:33:29.598Z,18.50
2018-09-15T19:36:10.113Z,18.50
2018-09-15T19:38:50.745Z,18.60
2018-09-15T19:41:26.694Z,18.60
2018-09-15T19:43:55.018Z,18.40
2018-09-15T19:46:36.217Z,18.40
2018-09-15T19:49:04.519Z,18.40
2018-09-15T19:51:45.242Z,18.40
2018-09-15T19:54:25.681Z,18.30
2018-09-15T19:57:06.283Z,18.20
2018-09-15T19:59:34.492Z,18.10
2018-09-15T20:02:02.820Z,18.10
2018-09-15T20:04:31.115Z,18.00
2018-09-15T20:07:11.310Z,18.00
2018-09-15T20:09:39.544Z,18.00
2018-09-15T20:12:20.658Z,18.00
2018-09-15T20:15:01.153Z,17.80
2018-09-15T20:17:41.747Z,17.70
2018-09-15T20:20:23.176Z,17.50
2018-09-15T20:22:53.417Z,17.40
2018-09-15T20:25:21.920Z,17.30
2018-09-15T20:28:02.835Z,17.20
2018-09-15T20:30:43.456Z,17.10
2018-09-15T20:33:24.147Z,17.00
2018-09-15T20:36:04.654Z,17.00
2018-09-15T20:38:45.335Z,17.00
2018-09-15T20:41:25.674Z,17.00
2018-09-15T20:44:06.292Z,17.00
2018-09-15T20:46:34.622Z,16.90
2018-09-15T20:49:15.703Z,17.00
2018-09-15T20:51:56.685Z,17.00
2018-09-15T20:54:37.230Z,17.00
2018-09-15T20:57:17.885Z,17.10
2018-09-15T20:59:58.418Z,17.10
2018-09-15T21:02:39.279Z,17.10
2018-09-15T21:05:19.969Z,17.10
2018-09-15T21:08:00.512Z,17.00
2018-09-15T21:10:41.274Z,17.00
2018-09-15T21:13:21.845Z,16.90
2018-09-15T21:16:02.687Z,17.00
2018-09-15T21:18:43.283Z,17.00
2018-09-15T21:21:23.911Z,16.90
2018-09-15T21:24:04.550Z,17.00
2018-09-15T21:26:32.849Z,16.90
2018-09-15T21:29:14.068Z,16.80
2018-09-15T21:31:42.334Z,16.90
2018-09-15T21:34:10.593Z,16.80
2018-09-15T21:36:50.896Z,16.80
2018-09-15T21:39:31.513Z,16.90
2018-09-15T21:42:12.282Z,16.80
2018-09-15T21:44:40.537Z,16.80
2018-09-15T21:47:08.947Z,16.80
2018-09-15T21:49:50.010Z,16.70
2018-09-15T21:52:18.311Z,16.70
2018-09-15T21:54:59.840Z,16.70
2018-09-15T21:57:28.116Z,16.60
2018-09-15T22:00:08.836Z,16.50
2018-09-15T22:04:18.669Z,16.50
2018-09-15T22:06:59.730Z,16.50
2018-09-15T22:09:28.022Z,16.40
2018-09-15T22:11:56.318Z,16.50
2018-09-15T22:14:36.750Z,16.50
2018-09-15T22:17:17.385Z,16.50
2018-09-15T22:19:45.643Z,16.50
2018-09-15T22:22:25.919Z,16.50
2018-09-15T22:25:06.685Z,16.50
2018-09-15T22:27:47.498Z,16.40
2018-09-15T22:30:15.867Z,16.30
2018-09-15T22:32:44.218Z,16.20
2018-09-15T22:35:14.073Z,16.20
2018-09-15T22:37:44.308Z,16.30
2018-09-15T22:40:25.172Z,16.30
2018-09-15T22:42:53.533Z,16.30
2018-09-15T22:45:34.512Z,16.30
2018-09-15T22:48:02.817Z,16.30
2018-09-15T22:50:30.995Z,16.20
2018-09-15T22:52:59.301Z,16.20
2018-09-15T22:55:40.192Z,16.10
2018-09-15T22:58:21.220Z,16.20
2018-09-15T23:01:02.850Z,16.10
2018-09-15T23:03:38.508Z,16.20
2018-09-15T23:06:07.946Z,16.10
2018-09-15T23:08:48.975Z,16.20
2018-09-15T23:11:17.270Z,16.10
2018-09-15T23:13:58.150Z,16.00
2018-09-15T23:16:38.986Z,15.90
2018-09-15T23:19:19.301Z,16.00
2018-09-15T23:21:59.890Z,16.00
2018-09-15T23:24:40.489Z,16.00
2018-09-15T23:27:21.449Z,16.00
2018-09-15T23:30:01.872Z,16.00
2018-09-15T23:32:42.477Z,16.00
2018-09-15T23:35:10.698Z,15.90
2018-09-15T23:37:40.804Z,15.80
2018-09-15T23:40:10.388Z,15.70
2018-09-15T23:42:51.118Z,15.70
2018-09-15T23:45:21.505Z,15.80
2018-09-15T23:47:49.757Z,15.70
2018-09-15T23:50:30.414Z,15.70
2018-09-15T23:53:10.901Z,15.80
2018-09-15T23:55:39.134Z,15.70
2018-09-15T23:58:09.537Z,15.70
